Terminal Aerodrome Forecast
Issued by NWS Wilmington, OH

Current Version | Previous Version | Text Only | Print | Product List | Glossary Off
Versions: 1 2 3 4 5 6 7 8 9 10 11 12 13 14 15

000
FTUS41 KILN 190500
TAFCMH
TAF
KCMH 190538Z 1906/2006 30004KT P6SM OVC022
      TEMPO 1907/1910 5SM BR OVC018
     FM192100 34003KT P6SM OVC025
     FM200100 00000KT P6SM OVC025=

USA.gov is the U.S. government's official web portal to all federal, state and local government web resources and services.